createdAt,value
2023-04-03T00:01:04.890Z,5.08
2023-04-03T00:03:31.787Z,5.07
2023-04-03T00:05:58.342Z,5.04
2023-04-03T00:08:24.889Z,4.99
2023-04-03T00:10:51.379Z,5.01
2023-04-03T00:13:18.101Z,5.00
2023-04-03T00:15:45.369Z,4.92
2023-04-03T00:18:12.020Z,4.96
2023-04-03T00:20:38.847Z,4.95
2023-04-03T00:23:05.897Z,4.92
2023-04-03T00:25:32.332Z,4.92
2023-04-03T00:27:58.877Z,4.89
2023-04-03T00:30:25.538Z,4.88
2023-04-03T00:32:53.332Z,4.83
2023-04-03T00:35:21.902Z,4.80
2023-04-03T00:37:49.191Z,4.82
2023-04-03T00:40:16.759Z,4.81
2023-04-03T00:42:44.735Z,4.79
2023-04-03T00:45:14.216Z,4.78
2023-04-03T00:47:42.003Z,4.76
2023-04-03T00:50:09.169Z,4.70
2023-04-03T00:52:35.850Z,4.74
2023-04-03T00:55:06.884Z,4.69
2023-04-03T00:57:34.058Z,4.69
2023-04-03T01:00:05.777Z,4.68
2023-04-03T01:02:32.594Z,4.63
2023-04-03T01:04:59.339Z,4.65
2023-04-03T01:07:31.659Z,4.64
2023-04-03T01:10:01.139Z,4.63
2023-04-03T01:12:34.471Z,4.57
2023-04-03T01:15:08.408Z,4.59
2023-04-03T01:17:36.953Z,4.52
2023-04-03T01:20:12.565Z,4.52
2023-04-03T01:22:51.418Z,4.48
2023-04-03T01:25:18.046Z,4.47
2023-04-03T01:27:45.052Z,4.47
2023-04-03T01:30:14.442Z,4.47
2023-04-03T01:32:40.974Z,4.45
2023-04-03T01:35:09.534Z,4.46
2023-04-03T01:37:36.281Z,4.41
2023-04-03T01:40:03.701Z,4.44
2023-04-03T01:42:30.893Z,4.34
2023-04-03T01:44:57.317Z,4.37
2023-04-03T01:47:24.123Z,4.35
2023-04-03T01:49:50.806Z,4.34
2023-04-03T01:52:17.276Z,4.30
2023-04-03T01:54:43.930Z,4.30
2023-04-03T01:57:11.462Z,4.29
2023-04-03T01:59:38.043Z,4.31
2023-04-03T02:02:04.541Z,4.27
2023-04-03T02:04:31.220Z,4.29
2023-04-03T02:06:57.954Z,4.25
2023-04-03T02:09:25.383Z,4.28
2023-04-03T02:11:52.984Z,4.08
2023-04-03T02:14:19.765Z,4.23
2023-04-03T02:16:46.383Z,4.22
2023-04-03T02:19:12.864Z,4.21
2023-04-03T02:21:40.252Z,4.19
2023-04-03T02:24:07.042Z,4.19
2023-04-03T02:26:34.580Z,4.17
2023-04-03T02:29:01.092Z,4.14
2023-04-03T02:31:28.459Z,4.14
2023-04-03T02:33:55.681Z,4.13
2023-04-03T02:36:22.725Z,4.12
2023-04-03T02:38:54.099Z,4.07
2023-04-03T02:41:21.987Z,4.05
2023-04-03T02:43:49.321Z,4.00
2023-04-03T02:46:16.869Z,4.03
2023-04-03T02:48:43.599Z,4.05
2023-04-03T02:51:10.463Z,4.03
2023-04-03T02:53:36.924Z,4.00
2023-04-03T02:56:09.870Z,3.98
2023-04-03T02:58:36.526Z,3.99
2023-04-03T03:01:04.487Z,3.95
2023-04-03T03:03:31.057Z,3.98
2023-04-03T03:06:05.917Z,3.96
2023-04-03T03:08:34.287Z,3.90
2023-04-03T03:11:00.728Z,3.92
2023-04-03T03:13:28.228Z,3.93
2023-04-03T03:15:54.863Z,3.91
2023-04-03T03:18:22.441Z,3.89
2023-04-03T03:20:53.930Z,3.89
2023-04-03T03:23:20.887Z,3.86
2023-04-03T03:25:47.421Z,3.85
2023-04-03T03:28:13.872Z,3.82
2023-04-03T03:30:40.312Z,3.84
2023-04-03T03:33:06.984Z,3.85
2023-04-03T03:35:33.833Z,3.80
2023-04-03T03:38:00.497Z,3.81
2023-04-03T03:40:27.130Z,3.79
2023-04-03T03:42:53.672Z,3.78
2023-04-03T03:45:20.935Z,3.77
2023-04-03T03:47:48.697Z,3.74
2023-04-03T03:50:16.191Z,3.77
2023-04-03T03:52:42.987Z,3.70
2023-04-03T03:55:09.608Z,3.74
2023-04-03T03:57:37.466Z,3.68
2023-04-03T04:00:05.902Z,3.69
2023-04-03T04:02:42.072Z,3.70
2023-04-03T04:05:12.407Z,3.69
2023-04-03T04:07:39.134Z,3.65
2023-04-03T04:10:06.591Z,3.59
2023-04-03T04:12:33.299Z,3.59
2023-04-03T04:14:59.845Z,3.62
2023-04-03T04:17:28.607Z,3.61
2023-04-03T04:19:56.198Z,3.60
2023-04-03T04:22:22.644Z,3.55
2023-04-03T04:24:49.196Z,3.58
2023-04-03T04:27:16.922Z,3.55
2023-04-03T04:29:43.522Z,3.52
2023-04-03T04:32:10.106Z,3.52
2023-04-03T04:34:36.801Z,3.48
2023-04-03T04:37:03.588Z,3.52
2023-04-03T04:39:30.527Z,3.45
2023-04-03T04:41:58.488Z,3.50
2023-04-03T04:44:27.500Z,3.44
2023-04-03T04:46:54.218Z,3.40
2023-04-03T04:49:21.459Z,3.47
2023-04-03T04:51:52.056Z,3.42
2023-04-03T04:54:22.973Z,3.39
2023-04-03T04:56:50.192Z,3.37
2023-04-03T04:59:16.818Z,3.42
2023-04-03T05:01:43.362Z,3.41
2023-04-03T05:04:16.101Z,3.38
2023-04-03T05:06:44.476Z,3.37
2023-04-03T05:09:15.668Z,3.38
2023-04-03T05:11:44.399Z,3.36
2023-04-03T05:14:13.175Z,3.34
2023-04-03T05:16:40.378Z,3.33
2023-04-03T05:19:07.410Z,3.34
2023-04-03T05:21:34.349Z,3.32
2023-04-03T05:24:09.947Z,3.32
2023-04-03T05:26:39.546Z,3.28
2023-04-03T05:29:07.356Z,3.33
2023-04-03T05:31:33.962Z,3.28
2023-04-03T05:34:00.736Z,3.27
2023-04-03T05:36:29.641Z,3.28
2023-04-03T05:39:01.460Z,3.28
2023-04-03T05:41:28.378Z,3.28
2023-04-03T05:43:55.797Z,3.28
2023-04-03T05:46:24.279Z,3.22
2023-04-03T05:48:54.725Z,3.27
2023-04-03T05:51:31.959Z,3.26
2023-04-03T05:54:13.484Z,3.28
2023-04-03T05:56:40.862Z,3.26
2023-04-03T05:59:08.311Z,3.28
2023-04-03T06:01:35.449Z,3.22
2023-04-03T06:04:02.191Z,3.27
2023-04-03T06:07:03.677Z,3.25
2023-04-03T06:09:31.305Z,3.27
2023-04-03T06:11:59.607Z,3.31
2023-04-03T06:14:27.643Z,3.31
2023-04-03T06:16:55.345Z,3.31
2023-04-03T06:19:21.890Z,3.32
2023-04-03T06:21:51.830Z,3.26
2023-04-03T06:24:19.093Z,3.32
2023-04-03T06:26:46.581Z,3.32
2023-04-03T06:29:13.421Z,3.14
2023-04-03T06:31:40.861Z,3.26
2023-04-03T06:34:09.652Z,3.34
2023-04-03T06:36:36.654Z,3.36
2023-04-03T06:39:04.159Z,3.37
2023-04-03T06:41:31.002Z,3.38
2023-04-03T06:43:58.907Z,3.39
2023-04-03T06:46:26.918Z,3.41
2023-04-03T06:48:53.917Z,3.38
2023-04-03T06:51:28.964Z,3.39
2023-04-03T06:53:57.636Z,3.42
2023-04-03T06:56:25.065Z,3.46
2023-04-03T06:58:52.461Z,3.44
2023-04-03T07:01:22.423Z,3.49
2023-04-03T07:03:49.526Z,3.49
2023-04-03T07:06:17.332Z,3.50
2023-04-03T07:08:44.612Z,3.50
2023-04-03T07:11:12.183Z,3.53
2023-04-03T07:13:39.164Z,3.56
2023-04-03T07:16:07.213Z,3.54
2023-04-03T07:18:34.569Z,3.61
2023-04-03T07:21:01.501Z,3.62
2023-04-03T07:23:28.375Z,3.57
2023-04-03T07:25:54.865Z,3.63
2023-04-03T07:28:23.556Z,3.69
2023-04-03T07:31:09.243Z,3.69
2023-04-03T07:33:37.325Z,3.69
2023-04-03T07:36:05.520Z,3.73
2023-04-03T07:38:31.933Z,3.75
2023-04-03T07:40:58.344Z,3.77
2023-04-03T07:43:25.934Z,3.77
2023-04-03T07:45:52.900Z,3.82
2023-04-03T07:48:25.894Z,3.84
2023-04-03T07:50:52.966Z,3.84
2023-04-03T07:53:20.001Z,3.87
2023-04-03T07:55:52.522Z,3.89
2023-04-03T07:58:19.398Z,3.86
2023-04-03T08:00:46.536Z,3.90
2023-04-03T08:03:13.927Z,3.96
2023-04-03T08:05:42.412Z,3.98
2023-04-03T08:08:11.581Z,4.00
2023-04-03T08:10:38.432Z,4.02
2023-04-03T08:13:06.020Z,4.04
2023-04-03T08:15:32.776Z,4.06
2023-04-03T08:18:00.454Z,4.08
2023-04-03T08:20:28.092Z,4.12
2023-04-03T08:22:54.764Z,4.11
2023-04-03T08:25:22.232Z,4.17
2023-04-03T08:27:48.756Z,4.19
2023-04-03T08:30:15.596Z,4.21
2023-04-03T08:32:45.439Z,4.23
2023-04-03T08:35:12.671Z,4.25
2023-04-03T08:37:40.124Z,4.28
2023-04-03T08:40:11.945Z,4.32
2023-04-03T08:42:50.381Z,4.35
2023-04-03T08:45:23.563Z,4.31
2023-04-03T08:48:06.807Z,4.36
2023-04-03T08:50:52.882Z,4.41
2023-04-03T08:53:23.922Z,4.45
2023-04-03T08:55:52.301Z,4.47
2023-04-03T08:58:33.055Z,4.43
2023-04-03T09:01:04.956Z,4.51
2023-04-03T09:03:34.187Z,4.50
2023-04-03T09:06:21.513Z,4.52
2023-04-03T09:09:12.914Z,4.57
2023-04-03T09:12:10.030Z,4.59
2023-04-03T09:15:04.044Z,4.62
2023-04-03T09:17:52.467Z,4.63
2023-04-03T09:20:22.015Z,4.67
2023-04-03T09:22:52.136Z,4.64
2023-04-03T09:25:22.233Z,4.72
2023-04-03T09:27:49.166Z,4.74
2023-04-03T09:30:18.153Z,4.79
2023-04-03T09:32:49.806Z,4.80
2023-04-03T09:35:32.791Z,4.82
2023-04-03T09:38:14.209Z,4.83
2023-04-03T09:40:50.186Z,4.84
2023-04-03T09:43:24.198Z,4.87
2023-04-03T09:45:51.629Z,4.84
2023-04-03T09:48:20.216Z,4.87
2023-04-03T09:51:00.299Z,4.88
2023-04-03T09:53:30.994Z,4.89
2023-04-03T09:55:58.243Z,4.89
2023-04-03T09:58:49.701Z,4.94
2023-04-03T10:01:26.354Z,4.93
2023-04-03T10:04:11.164Z,4.96
2023-04-03T10:06:55.287Z,4.98
2023-04-03T10:09:25.739Z,5.01
2023-04-03T10:12:08.279Z,5.02
2023-04-03T10:14:37.613Z,5.01
2023-04-03T10:17:17.081Z,5.05
2023-04-03T10:19:53.506Z,5.09
2023-04-03T10:23:04.428Z,5.08
2023-04-03T10:25:33.482Z,5.16
2023-04-03T10:28:02.801Z,5.14
2023-04-03T10:30:47.613Z,5.17
2023-04-03T10:33:30.893Z,5.22
2023-04-03T10:36:10.354Z,5.20
2023-04-03T10:38:46.390Z,5.16
2023-04-03T10:41:33.022Z,5.30
2023-04-03T10:44:21.798Z,5.32
2023-04-03T10:46:56.975Z,5.33
2023-04-03T10:49:29.463Z,5.40
2023-04-03T10:52:29.694Z,5.41
2023-04-03T10:55:32.300Z,5.45
2023-04-03T10:58:00.669Z,5.48
2023-04-03T11:00:42.838Z,5.51
2023-04-03T11:03:23.781Z,5.55
2023-04-03T11:05:54.747Z,5.57
2023-04-03T11:08:40.559Z,5.61
2023-04-03T11:11:12.495Z,5.65
2023-04-03T11:13:52.348Z,5.63
2023-04-03T11:16:28.052Z,5.70
2023-04-03T11:19:03.347Z,5.68
2023-04-03T11:21:36.617Z,5.76
2023-04-03T11:24:08.616Z,5.80
2023-04-03T11:26:40.782Z,5.79
2023-04-03T11:29:20.703Z,5.87
2023-04-03T11:32:19.814Z,5.89
2023-04-03T11:34:54.966Z,5.90
2023-04-03T11:37:36.687Z,5.91
2023-04-03T11:40:23.987Z,5.88
2023-04-03T11:42:54.859Z,6.00
2023-04-03T11:45:33.835Z,6.01
2023-04-03T11:48:28.051Z,6.04
2023-04-03T11:50:54.908Z,6.00
2023-04-03T11:53:36.625Z,6.06
2023-04-03T11:56:24.838Z,6.12
2023-04-03T11:59:24.815Z,6.08
2023-04-03T12:01:56.804Z,6.16
2023-04-03T12:04:26.371Z,6.16
2023-04-03T12:07:13.544Z,6.18
2023-04-03T12:09:43.100Z,6.22
2023-04-03T12:12:39.128Z,6.22
2023-04-03T12:15:42.797Z,6.17
2023-04-03T12:18:44.932Z,6.25
2023-04-03T12:21:14.200Z,6.29
2023-04-03T12:24:08.629Z,6.30
2023-04-03T12:26:48.989Z,6.32
2023-04-03T12:29:18.842Z,6.35
2023-04-03T12:32:04.370Z,6.36
2023-04-03T12:34:37.230Z,6.41
2023-04-03T12:37:27.690Z,6.42
2023-04-03T12:40:07.514Z,6.44
2023-04-03T12:43:11.653Z,6.46
2023-04-03T12:45:47.416Z,6.49
2023-04-03T12:48:17.478Z,6.53
2023-04-03T12:50:47.570Z,6.54
2023-04-03T12:53:16.150Z,6.55
2023-04-03T12:55:42.582Z,6.57
2023-04-03T12:58:38.441Z,6.59
2023-04-03T13:01:12.171Z,6.63
2023-04-03T13:03:41.644Z,6.60
2023-04-03T13:06:08.135Z,6.64
2023-04-03T13:08:34.570Z,6.67
2023-04-03T13:11:11.486Z,6.69
2023-04-03T13:13:39.860Z,6.69
2023-04-03T13:16:11.516Z,6.69
2023-04-03T13:18:39.397Z,6.70
2023-04-03T13:21:12.914Z,6.70
2023-04-03T13:23:43.436Z,6.73
2023-04-03T13:26:11.437Z,6.74
2023-04-03T13:28:40.200Z,6.73
2023-04-03T13:31:20.916Z,6.75
2023-04-03T13:34:12.199Z,6.77
2023-04-03T13:36:41.809Z,6.77
2023-04-03T13:39:30.675Z,6.79
2023-04-03T13:41:59.710Z,6.81
2023-04-03T13:44:40.386Z,6.82
2023-04-03T13:47:16.250Z,6.86
2023-04-03T13:50:00.076Z,6.84
2023-04-03T13:52:36.560Z,6.86
2023-04-03T13:55:25.635Z,6.87
2023-04-03T13:58:01.664Z,6.88
2023-04-03T14:00:54.987Z,6.87
2023-04-03T14:03:31.842Z,6.90
2023-04-03T14:05:59.038Z,6.91
2023-04-03T14:08:39.670Z,6.90
2023-04-03T14:11:28.163Z,6.90
2023-04-03T14:13:56.650Z,6.91
2023-04-03T14:16:26.527Z,6.92
2023-04-03T14:18:53.858Z,6.94
2023-04-03T14:21:22.247Z,6.96
2023-04-03T14:23:49.605Z,6.94
2023-04-03T14:26:22.949Z,6.97
2023-04-03T14:28:52.528Z,6.99
2023-04-03T14:31:19.833Z,7.00
2023-04-03T14:33:46.721Z,7.00
2023-04-03T14:36:15.746Z,7.00
2023-04-03T14:38:43.075Z,7.01
2023-04-03T14:41:16.616Z,6.99
2023-04-03T14:43:43.702Z,6.93
2023-04-03T14:46:40.873Z,6.94
2023-04-03T14:49:16.903Z,6.91
2023-04-03T14:51:43.415Z,6.96
2023-04-03T14:54:16.790Z,6.97
2023-04-03T14:56:45.310Z,6.99
2023-04-03T14:59:16.386Z,6.99
2023-04-03T15:01:42.924Z,6.99
2023-04-03T15:04:27.382Z,6.98
2023-04-03T15:06:54.320Z,7.02
2023-04-03T15:09:22.231Z,7.04
2023-04-03T15:11:50.266Z,7.04
2023-04-03T15:14:29.469Z,7.05
2023-04-03T15:17:07.193Z,7.04
2023-04-03T15:19:38.217Z,7.05
2023-04-03T15:22:05.246Z,7.03
2023-04-03T15:24:31.726Z,7.05
2023-04-03T15:26:58.733Z,7.02
2023-04-03T15:29:25.272Z,7.03
2023-04-03T15:31:54.344Z,6.95
2023-04-03T15:34:22.658Z,6.99
2023-04-03T15:36:51.278Z,7.00
2023-04-03T15:39:17.812Z,7.01
2023-04-03T15:41:45.315Z,7.01
2023-04-03T15:44:13.139Z,6.98
2023-04-03T15:46:39.654Z,6.94
2023-04-03T15:49:06.573Z,6.92
2023-04-03T15:51:33.096Z,6.97
2023-04-03T15:53:59.572Z,6.94
2023-04-03T15:56:26.136Z,6.89
2023-04-03T15:58:52.755Z,6.98
2023-04-03T16:01:19.622Z,6.97
2023-04-03T16:03:46.479Z,6.92
2023-04-03T16:06:15.001Z,6.96
2023-04-03T16:08:41.861Z,6.91
2023-04-03T16:11:08.748Z,6.91
2023-04-03T16:13:36.104Z,6.90
2023-04-03T16:16:03.305Z,6.87
2023-04-03T16:18:30.395Z,6.90
2023-04-03T16:20:56.921Z,6.90
2023-04-03T16:23:25.375Z,6.89
2023-04-03T16:25:52.138Z,6.87
2023-04-03T16:28:19.389Z,6.89
2023-04-03T16:30:48.240Z,6.88
2023-04-03T16:33:14.836Z,6.84
2023-04-03T16:35:43.041Z,6.86
2023-04-03T16:38:09.594Z,6.85
2023-04-03T16:40:36.282Z,6.85
2023-04-03T16:43:03.288Z,6.80
2023-04-03T16:45:29.916Z,6.83
2023-04-03T16:47:56.434Z,6.84
2023-04-03T16:50:23.130Z,6.85
2023-04-03T16:52:50.068Z,6.80
2023-04-03T16:55:16.632Z,6.86
2023-04-03T16:57:43.235Z,6.81
2023-04-03T17:00:10.769Z,6.86
2023-04-03T17:02:37.317Z,6.73
2023-04-03T17:05:04.007Z,6.87
2023-04-03T17:07:30.578Z,6.87
2023-04-03T17:09:57.676Z,6.86
2023-04-03T17:12:24.300Z,6.86
2023-04-03T17:14:51.410Z,6.86
2023-04-03T17:17:23.342Z,6.87
2023-04-03T17:19:50.423Z,6.85
2023-04-03T17:22:18.083Z,6.84
2023-04-03T17:24:46.167Z,6.85
2023-04-03T17:27:12.937Z,6.80
2023-04-03T17:29:39.357Z,6.85
2023-04-03T17:32:05.919Z,6.81
2023-04-03T17:34:33.677Z,6.82
2023-04-03T17:37:00.217Z,6.81
2023-04-03T17:39:26.776Z,6.81
2023-04-03T17:41:55.216Z,6.63
2023-04-03T17:44:22.031Z,6.79
2023-04-03T17:46:48.515Z,6.77
2023-04-03T17:49:18.550Z,6.74
2023-04-03T17:51:45.112Z,6.72
2023-04-03T17:54:12.018Z,6.67
2023-04-03T17:56:38.507Z,6.65
2023-04-03T17:59:05.159Z,6.57
2023-04-03T18:01:34.274Z,6.61
2023-04-03T18:04:04.324Z,6.59
2023-04-03T18:06:36.825Z,6.59
2023-04-03T18:09:31.757Z,6.51
2023-04-03T18:12:00.749Z,6.52
2023-04-03T18:14:28.193Z,6.47
2023-04-03T18:16:57.348Z,6.44
2023-04-03T18:19:24.868Z,6.43
2023-04-03T18:21:55.162Z,6.43
2023-04-03T18:24:23.042Z,6.41
2023-04-03T18:26:55.420Z,6.36
2023-04-03T18:29:22.595Z,6.28
2023-04-03T18:31:52.407Z,6.33
2023-04-03T18:34:18.978Z,6.28
2023-04-03T18:36:46.552Z,6.28
2023-04-03T18:39:13.165Z,6.26
2023-04-03T18:41:39.915Z,6.17
2023-04-03T18:44:10.351Z,6.22
2023-04-03T18:49:10.835Z,6.16
2023-04-03T18:51:39.455Z,6.15
2023-04-03T18:54:06.980Z,6.11
2023-04-03T18:56:33.452Z,6.10
2023-04-03T18:58:59.910Z,6.08
2023-04-03T19:01:26.558Z,6.05
2023-04-03T19:03:53.093Z,6.03
2023-04-03T19:06:19.894Z,6.00
2023-04-03T19:08:47.020Z,5.98
2023-04-03T19:11:13.492Z,5.95
2023-04-03T19:13:46.767Z,5.92
2023-04-03T19:16:26.758Z,5.90
2023-04-03T19:18:53.213Z,5.89
2023-04-03T19:21:19.728Z,5.83
2023-04-03T19:23:47.831Z,5.77
2023-04-03T19:26:14.424Z,5.80
2023-04-03T19:28:41.655Z,5.78
2023-04-03T19:31:16.008Z,5.77
2023-04-03T19:33:43.407Z,5.75
2023-04-03T19:36:10.841Z,5.72
2023-04-03T19:38:37.987Z,5.71
2023-04-03T19:41:11.514Z,5.69
2023-04-03T19:43:38.799Z,5.60
2023-04-03T19:46:07.168Z,5.64
2023-04-03T19:48:35.709Z,5.61
2023-04-03T19:51:04.121Z,5.57
2023-04-03T19:53:30.946Z,5.59
2023-04-03T19:55:58.098Z,5.54
2023-04-03T19:58:27.705Z,5.56
2023-04-03T20:00:55.462Z,5.51
2023-04-03T20:03:24.258Z,5.50
2023-04-03T20:05:51.184Z,5.50
2023-04-03T20:08:18.972Z,5.43
2023-04-03T20:10:45.765Z,5.41
2023-04-03T20:13:13.902Z,5.43
2023-04-03T20:15:42.230Z,5.41
2023-04-03T20:18:19.741Z,5.36
2023-04-03T20:20:57.410Z,5.36
2023-04-03T20:23:24.367Z,5.29
2023-04-03T20:26:05.813Z,5.33
2023-04-03T20:28:36.246Z,5.29
2023-04-03T20:31:03.563Z,5.28
2023-04-03T20:33:30.377Z,5.26
2023-04-03T20:35:58.410Z,5.24
2023-04-03T20:38:25.257Z,5.22
2023-04-03T20:40:52.253Z,5.17
2023-04-03T20:43:19.368Z,5.14
2023-04-03T20:45:46.078Z,5.15
2023-04-03T20:48:13.266Z,5.12
2023-04-03T20:50:40.924Z,5.11
2023-04-03T20:53:08.112Z,5.10
2023-04-03T20:55:34.809Z,5.06
2023-04-03T20:58:01.325Z,5.04
2023-04-03T21:00:29.051Z,5.04
2023-04-03T21:02:57.050Z,5.01
2023-04-03T21:05:26.055Z,5.00
2023-04-03T21:08:32.648Z,4.97
2023-04-03T21:11:36.999Z,4.93
2023-04-03T21:14:42.320Z,4.89
2023-04-03T21:17:08.804Z,4.88
2023-04-03T21:19:40.274Z,4.86
2023-04-03T21:22:06.785Z,4.82
2023-04-03T21:24:33.481Z,4.82
2023-04-03T21:26:59.937Z,4.82
2023-04-03T21:29:26.663Z,4.79
2023-04-03T21:31:58.028Z,4.73
2023-04-03T21:34:27.559Z,4.77
2023-04-03T21:36:55.135Z,4.72
2023-04-03T21:39:22.051Z,4.71
2023-04-03T21:41:54.844Z,4.68
2023-04-03T21:44:22.583Z,4.65
2023-04-03T21:46:54.274Z,4.67
2023-04-03T21:49:22.297Z,4.66
2023-04-03T21:51:49.616Z,4.61
2023-04-03T21:54:16.510Z,4.61
2023-04-03T21:56:43.879Z,4.61
2023-04-03T21:59:10.524Z,4.59
2023-04-03T22:01:37.171Z,4.46
2023-04-03T22:04:03.679Z,4.51
2023-04-03T22:06:30.403Z,4.54
2023-04-03T22:08:57.280Z,4.52
2023-04-03T22:11:27.472Z,4.50
2023-04-03T22:13:55.398Z,4.47
2023-04-03T22:16:24.004Z,4.45
2023-04-03T22:18:54.950Z,4.43
2023-04-03T22:21:22.512Z,4.41
2023-04-03T22:23:49.255Z,4.41
2023-04-03T22:26:16.121Z,4.39
2023-04-03T22:28:45.136Z,4.36
2023-04-03T22:31:16.294Z,4.35
2023-04-03T22:33:44.886Z,4.29
2023-04-03T22:36:13.163Z,4.29
2023-04-03T22:38:43.309Z,4.30
2023-04-03T22:41:10.611Z,4.24
2023-04-03T22:43:37.898Z,4.22
2023-04-03T22:46:07.497Z,4.25
2023-04-03T22:48:34.379Z,4.22
2023-04-03T22:51:01.554Z,4.19
2023-04-03T22:53:28.684Z,4.14
2023-04-03T22:55:59.934Z,4.05
2023-04-03T22:58:27.582Z,4.09
2023-04-03T23:00:56.165Z,4.04
2023-04-03T23:03:24.314Z,4.06
2023-04-03T23:05:51.645Z,4.06
2023-04-03T23:08:19.044Z,4.05
2023-04-03T23:10:46.060Z,3.99
2023-04-03T23:13:12.534Z,4.00
2023-04-03T23:15:39.069Z,4.00
2023-04-03T23:18:05.681Z,4.00
2023-04-03T23:20:32.244Z,3.91
2023-04-03T23:22:58.791Z,3.98
2023-04-03T23:25:25.317Z,3.93
2023-04-03T23:27:55.220Z,3.95
2023-04-03T23:30:21.702Z,3.95
2023-04-03T23:32:48.635Z,3.91
2023-04-03T23:35:15.303Z,3.90
2023-04-03T23:37:42.541Z,3.88
2023-04-03T23:40:10.145Z,3.87
2023-04-03T23:42:36.696Z,3.82
2023-04-03T23:45:03.280Z,3.83
2023-04-03T23:47:29.960Z,3.85
2023-04-03T23:49:56.612Z,3.84
2023-04-03T23:52:23.018Z,3.78
2023-04-03T23:54:50.375Z,3.69
2023-04-03T23:57:16.902Z,3.72
2023-04-03T23:59:43.381Z,3.78
